createdAt,value
2022-08-01T00:01:59.929Z,8.35
2022-08-01T00:04:26.659Z,7.10
2022-08-01T00:06:53.325Z,7.55
2022-08-01T00:09:24.239Z,8.32
2022-08-01T00:11:59.784Z,8.18
2022-08-01T00:14:32.203Z,8.02
2022-08-01T00:17:05.166Z,8.80
2022-08-01T00:19:34.129Z,7.15
2022-08-01T00:22:00.905Z,6.05
2022-08-01T00:24:27.573Z,6.55
2022-08-01T00:26:54.201Z,7.47
2022-08-01T00:30:12.120Z,7.63
2022-08-01T00:32:08.307Z,6.72
2022-08-01T00:34:35.194Z,6.50
2022-08-01T00:37:01.829Z,6.88
2022-08-01T00:39:28.517Z,6.63
2022-08-01T00:41:59.645Z,6.63
2022-08-01T00:44:27.682Z,6.78
2022-08-01T00:46:54.307Z,6.80
2022-08-01T00:49:21.116Z,7.13
2022-08-01T00:51:47.884Z,6.75
2022-08-01T00:54:16.624Z,7.10
2022-08-01T00:56:44.157Z,7.07
2022-08-01T00:59:14.015Z,7.50
2022-08-01T01:01:46.729Z,6.97
2022-08-01T01:04:17.428Z,6.43
2022-08-01T01:06:59.198Z,5.80
2022-08-01T01:09:42.580Z,7.55
2022-08-01T01:12:14.746Z,6.82
2022-08-01T01:14:50.129Z,6.53
2022-08-01T01:17:49.445Z,6.60
2022-08-01T01:20:09.389Z,7.65
2022-08-01T01:22:54.207Z,7.32
2022-08-01T01:25:38.808Z,6.38
2022-08-01T01:28:30.273Z,6.82
2022-08-01T01:30:58.951Z,6.78
2022-08-01T01:33:29.428Z,7.05
2022-08-01T01:36:00.723Z,8.63
2022-08-01T01:38:33.735Z,8.18
2022-08-01T01:41:01.358Z,8.18
2022-08-01T01:43:33.366Z,8.50
2022-08-01T01:46:01.378Z,7.53
2022-08-01T01:48:28.876Z,7.10
2022-08-01T01:50:57.739Z,6.32
2022-08-01T01:53:25.129Z,6.82
2022-08-01T01:55:54.071Z,6.00
2022-08-01T01:58:21.576Z,5.65
2022-08-01T02:00:49.536Z,4.88
2022-08-01T02:03:19.395Z,3.70
2022-08-01T02:05:46.783Z,4.13
2022-08-01T02:08:16.008Z,4.30
2022-08-01T02:11:03.242Z,4.20
2022-08-01T02:13:31.993Z,4.03
2022-08-01T02:16:00.735Z,3.85
2022-08-01T02:18:27.790Z,3.45
2022-08-01T02:20:55.917Z,3.90
2022-08-01T02:23:24.673Z,4.68
2022-08-01T02:26:10.324Z,4.60
2022-08-01T02:29:07.902Z,4.70
2022-08-01T02:31:37.129Z,4.35
2022-08-01T02:34:07.160Z,4.53
2022-08-01T02:36:36.245Z,3.97
2022-08-01T02:39:10.486Z,4.15
2022-08-01T02:41:43.460Z,5.45
2022-08-01T02:44:13.180Z,4.75
2022-08-01T02:46:42.369Z,5.50
2022-08-01T02:49:10.556Z,4.90
2022-08-01T02:51:37.663Z,5.80
2022-08-01T02:54:06.605Z,5.93
2022-08-01T02:56:37.109Z,5.55
2022-08-01T02:59:06.691Z,5.90
2022-08-01T03:01:36.487Z,5.78
2022-08-01T03:04:05.863Z,5.30
2022-08-01T03:06:33.844Z,6.35
2022-08-01T03:09:02.763Z,6.22
2022-08-01T03:11:30.760Z,6.15
2022-08-01T03:14:00.775Z,6.30
2022-08-01T03:16:28.297Z,6.05
2022-08-01T03:18:57.054Z,6.18
2022-08-01T03:21:24.601Z,6.60
2022-08-01T03:23:55.074Z,7.18
2022-08-01T03:26:22.153Z,6.82
2022-08-01T03:28:49.086Z,7.20
2022-08-01T03:31:16.264Z,7.22
2022-08-01T03:33:42.916Z,9.05
2022-08-01T03:36:10.979Z,7.82
2022-08-01T03:38:39.288Z,8.40
2022-08-01T03:41:22.101Z,7.68
2022-08-01T03:44:00.800Z,8.63
2022-08-01T03:46:34.662Z,9.23
2022-08-01T03:49:07.087Z,6.47
2022-08-01T03:51:34.402Z,8.18
2022-08-01T03:54:02.219Z,7.75
2022-08-01T03:56:29.045Z,8.63
2022-08-01T03:58:55.773Z,8.73
2022-08-01T04:01:22.623Z,7.35
2022-08-01T04:03:49.693Z,6.68
2022-08-01T04:06:16.624Z,7.32
2022-08-01T04:08:43.365Z,7.38
2022-08-01T04:11:10.873Z,6.43
2022-08-01T04:13:38.426Z,7.22
2022-08-01T04:16:05.809Z,6.77
2022-08-01T04:18:33.139Z,6.57
2022-08-01T04:20:59.859Z,6.63
2022-08-01T04:23:27.269Z,6.53
2022-08-01T04:25:54.793Z,5.90
2022-08-01T04:28:23.265Z,6.72
2022-08-01T04:33:17.342Z,6.63
2022-08-01T04:36:03.792Z,6.50
2022-08-01T04:38:33.990Z,6.30
2022-08-01T04:41:08.495Z,5.80
2022-08-01T04:43:37.188Z,6.10
2022-08-01T04:46:04.984Z,5.43
2022-08-01T04:48:33.131Z,6.20
2022-08-01T04:51:00.176Z,5.85
2022-08-01T04:53:27.707Z,5.97
2022-08-01T04:55:54.593Z,5.22
2022-08-01T04:58:21.280Z,5.35
2022-08-01T05:00:48.330Z,6.63
2022-08-01T05:03:15.106Z,5.50
2022-08-01T05:05:41.802Z,6.10
2022-08-01T05:08:08.477Z,6.65
2022-08-01T05:10:35.320Z,5.75
2022-08-01T05:13:01.999Z,5.68
2022-08-01T05:15:28.667Z,6.40
2022-08-01T05:17:55.777Z,7.50
2022-08-01T05:20:22.478Z,6.40
2022-08-01T05:22:49.408Z,6.53
2022-08-01T05:25:20.386Z,6.53
2022-08-01T05:27:51.521Z,6.30
2022-08-01T05:30:18.161Z,6.03
2022-08-01T05:32:44.849Z,6.10
2022-08-01T05:35:11.499Z,5.65
2022-08-01T05:37:38.256Z,5.60
2022-08-01T05:40:06.335Z,5.10
2022-08-01T05:42:32.948Z,5.63
2022-08-01T05:44:59.607Z,5.97
2022-08-01T05:47:26.246Z,5.00
2022-08-01T05:49:52.885Z,5.82
2022-08-01T05:52:19.830Z,4.95
2022-08-01T05:54:46.499Z,4.97
2022-08-01T05:57:13.171Z,4.90
2022-08-01T05:59:41.956Z,4.35
2022-08-01T06:02:08.970Z,5.13
2022-08-01T06:04:36.046Z,5.18
2022-08-01T06:07:02.672Z,4.75
2022-08-01T06:09:29.325Z,4.95
2022-08-01T06:11:55.944Z,4.72
2022-08-01T06:14:22.724Z,5.72
2022-08-01T06:16:49.415Z,5.72
2022-08-01T06:19:16.047Z,4.50
2022-08-01T06:21:42.768Z,5.72
2022-08-01T06:24:10.195Z,5.30
2022-08-01T06:26:38.103Z,5.72
2022-08-01T06:29:04.877Z,4.80
2022-08-01T06:31:33.993Z,4.38
2022-08-01T06:34:00.933Z,4.75
2022-08-01T06:36:28.152Z,3.83
2022-08-01T06:38:54.852Z,4.50
2022-08-01T06:41:21.542Z,4.55
2022-08-01T06:43:48.203Z,4.05
2022-08-01T06:46:14.901Z,3.90
2022-08-01T06:48:41.720Z,4.03
2022-08-01T06:51:09.697Z,3.97
2022-08-01T06:53:37.992Z,4.53
2022-08-01T06:56:05.308Z,4.15
2022-08-01T06:58:32.072Z,5.00
2022-08-01T07:00:59.664Z,3.92
2022-08-01T07:03:26.535Z,3.40
2022-08-01T07:05:56.767Z,4.28
2022-08-01T07:08:23.394Z,3.33
2022-08-01T07:10:50.164Z,3.55
2022-08-01T07:13:21.581Z,3.88
2022-08-01T07:15:48.717Z,3.60
2022-08-01T07:18:15.639Z,4.53
2022-08-01T07:20:52.944Z,3.35
2022-08-01T07:23:22.749Z,3.72
2022-08-01T07:26:00.908Z,4.15
2022-08-01T07:28:28.221Z,4.47
2022-08-01T07:30:54.920Z,3.90
2022-08-01T07:33:21.546Z,3.83
2022-08-01T07:35:48.269Z,3.20
2022-08-01T07:38:16.386Z,2.60
2022-08-01T07:40:43.193Z,3.08
2022-08-01T07:43:10.164Z,2.35
2022-08-01T07:45:36.855Z,2.70
2022-08-01T07:48:09.030Z,2.60
2022-08-01T07:50:36.008Z,2.10
2022-08-01T07:53:03.714Z,2.45
2022-08-01T07:55:30.421Z,1.80
2022-08-01T07:57:57.131Z,1.58
2022-08-01T08:00:24.785Z,1.70
2022-08-01T08:02:51.502Z,1.73
2022-08-01T08:05:58.723Z,1.58
2022-08-01T08:08:09.793Z,1.42
2022-08-01T08:10:36.546Z,1.15
2022-08-01T08:13:03.830Z,1.55
2022-08-01T08:15:30.703Z,1.90
2022-08-01T08:17:57.433Z,1.45
2022-08-01T08:20:26.020Z,1.50
2022-08-01T08:25:22.982Z,1.10
2022-08-01T08:27:53.697Z,1.50
2022-08-01T08:30:20.397Z,1.30
2022-08-01T08:32:49.030Z,1.58
2022-08-01T08:35:23.070Z,1.70
2022-08-01T08:37:50.198Z,1.80
2022-08-01T08:40:23.818Z,1.40
2022-08-01T08:42:50.546Z,1.42
2022-08-01T08:45:17.238Z,1.35
2022-08-01T08:47:44.979Z,1.35
2022-08-01T08:50:11.843Z,1.10
2022-08-01T08:52:40.179Z,1.13
2022-08-01T08:55:07.644Z,1.10
2022-08-01T08:57:34.546Z,1.23
2022-08-01T09:00:01.262Z,1.73
2022-08-01T09:02:27.906Z,1.88
2022-08-01T09:04:54.748Z,1.50
2022-08-01T09:07:21.654Z,1.50
2022-08-01T09:09:50.173Z,1.30
2022-08-01T09:12:19.433Z,2.22
2022-08-01T09:14:47.424Z,1.90
2022-08-01T09:17:14.279Z,1.85
2022-08-01T09:19:54.615Z,1.63
2022-08-01T09:22:25.959Z,1.52
2022-08-01T09:25:06.626Z,1.83
2022-08-01T09:27:34.046Z,1.60
2022-08-01T09:30:19.353Z,1.60
2022-08-01T09:33:11.403Z,1.65
2022-08-01T09:35:46.475Z,1.80
2022-08-01T09:38:23.684Z,1.88
2022-08-01T09:40:52.786Z,1.52
2022-08-01T09:43:20.838Z,1.90
2022-08-01T09:45:49.114Z,1.50
2022-08-01T09:48:20.864Z,1.88
2022-08-01T09:50:54.109Z,1.70
2022-08-01T09:53:30.204Z,2.00
2022-08-01T09:56:10.655Z,1.80
2022-08-01T09:59:01.134Z,2.00
2022-08-01T10:01:41.267Z,2.53
2022-08-01T10:04:18.520Z,2.20
2022-08-01T10:06:57.194Z,3.10
2022-08-01T10:09:40.217Z,3.05
2022-08-01T10:12:15.840Z,2.83
2022-08-01T10:14:46.101Z,3.00
2022-08-01T10:17:19.783Z,4.40
2022-08-01T10:19:47.992Z,2.90
2022-08-01T10:22:18.873Z,2.40
2022-08-01T10:24:48.253Z,3.10
2022-08-01T10:27:24.365Z,3.10
2022-08-01T10:30:16.871Z,2.60
2022-08-01T10:32:51.319Z,2.83
2022-08-01T10:35:45.756Z,2.70
2022-08-01T10:38:06.340Z,2.60
2022-08-01T10:40:38.762Z,3.00
2022-08-01T10:43:06.590Z,3.70
2022-08-01T10:45:34.451Z,3.15
2022-08-01T10:48:07.514Z,2.90
2022-08-01T10:50:48.508Z,3.40
2022-08-01T10:53:31.523Z,3.75
2022-08-01T10:56:12.911Z,3.00
2022-08-01T10:58:44.590Z,3.28
2022-08-01T11:01:31.483Z,3.80
2022-08-01T11:04:02.843Z,4.97
2022-08-01T11:06:33.706Z,4.60
2022-08-01T11:09:03.270Z,4.78
2022-08-01T11:11:37.815Z,3.78
2022-08-01T11:14:10.542Z,3.88
2022-08-01T11:16:39.042Z,3.92
2022-08-01T11:19:09.562Z,4.30
2022-08-01T11:21:57.314Z,3.78
2022-08-01T11:24:49.690Z,3.38
2022-08-01T11:27:27.957Z,3.90
2022-08-01T11:30:12.822Z,3.33
2022-08-01T11:33:10.290Z,3.22
2022-08-01T11:35:38.093Z,4.13
2022-08-01T11:38:29.464Z,3.40
2022-08-01T11:41:15.752Z,3.05
2022-08-01T11:44:02.737Z,3.40
2022-08-01T11:47:11.680Z,3.13
2022-08-01T11:49:49.394Z,2.88
2022-08-01T11:52:21.185Z,2.70
2022-08-01T11:54:47.810Z,2.70
2022-08-01T11:57:34.117Z,2.30
2022-08-01T12:00:08.270Z,2.63
2022-08-01T12:02:35.792Z,2.40
2022-08-01T12:05:11.644Z,2.40
2022-08-01T12:07:40.418Z,2.55
2022-08-01T12:10:08.801Z,2.55
2022-08-01T12:15:07.190Z,3.53
2022-08-01T12:17:47.166Z,3.50
2022-08-01T12:20:31.225Z,4.10
2022-08-01T12:23:06.866Z,4.45
2022-08-01T12:25:33.559Z,4.10
2022-08-01T12:28:07.673Z,3.60
2022-08-01T12:30:36.591Z,3.33
2022-08-01T12:33:05.901Z,3.78
2022-08-01T12:35:33.400Z,3.30
2022-08-01T12:38:03.496Z,3.67
2022-08-01T12:40:36.649Z,3.85
2022-08-01T12:43:05.853Z,3.40
2022-08-01T12:45:38.601Z,2.83
2022-08-01T12:48:09.217Z,3.70
2022-08-01T12:50:38.323Z,3.53
2022-08-01T12:53:05.360Z,3.15
2022-08-01T12:55:34.862Z,2.95
2022-08-01T12:58:11.521Z,2.93
2022-08-01T13:00:45.462Z,3.17
2022-08-01T13:03:16.930Z,3.15
2022-08-01T13:05:49.335Z,2.67
2022-08-01T13:08:21.788Z,3.67
2022-08-01T13:10:48.740Z,3.50
2022-08-01T13:13:22.354Z,3.47
2022-08-01T13:16:05.706Z,2.47
2022-08-01T13:18:33.589Z,3.22
2022-08-01T13:21:11.779Z,3.00
2022-08-01T13:24:01.208Z,2.80
2022-08-01T13:26:46.858Z,2.30
2022-08-01T13:29:17.114Z,3.45
2022-08-01T13:31:44.507Z,3.50
2022-08-01T13:34:11.434Z,3.33
2022-08-01T13:36:38.814Z,3.10
2022-08-01T13:39:24.321Z,3.58
2022-08-01T13:41:50.969Z,2.90
2022-08-01T13:44:17.582Z,2.60
2022-08-01T13:46:49.963Z,2.90
2022-08-01T13:49:18.944Z,3.10
2022-08-01T13:51:47.500Z,3.17
2022-08-01T13:56:41.185Z,2.35
2022-08-01T13:59:07.809Z,2.38
2022-08-01T14:01:35.143Z,2.50
2022-08-01T14:04:02.769Z,2.22
2022-08-01T14:06:29.486Z,2.35
2022-08-01T14:08:56.161Z,2.30
2022-08-01T14:11:22.881Z,2.47
2022-08-01T14:13:49.529Z,2.20
2022-08-01T14:16:16.237Z,2.78
2022-08-01T14:18:44.197Z,2.10
2022-08-01T14:21:11.313Z,2.53
2022-08-01T14:23:38.073Z,2.42
2022-08-01T14:26:11.546Z,2.60
2022-08-01T14:28:39.798Z,2.90
2022-08-01T14:31:09.806Z,2.20
2022-08-01T14:33:37.485Z,2.42
2022-08-01T14:36:29.651Z,2.80
2022-08-01T14:38:51.381Z,2.60
2022-08-01T14:41:18.192Z,2.78
2022-08-01T14:43:45.575Z,2.78
2022-08-01T14:46:13.507Z,2.38
2022-08-01T14:48:40.277Z,2.13
2022-08-01T14:51:08.332Z,2.47
2022-08-01T14:53:37.366Z,1.85
2022-08-01T14:56:07.595Z,1.90
2022-08-01T14:58:34.554Z,2.05
2022-08-01T15:01:01.723Z,2.20
2022-08-01T15:03:28.514Z,2.40
2022-08-01T15:05:55.211Z,1.90
2022-08-01T15:08:21.933Z,2.47
2022-08-01T15:10:48.681Z,2.88
2022-08-01T15:13:15.301Z,2.00
2022-08-01T15:15:42.010Z,2.13
2022-08-01T15:18:08.657Z,2.03
2022-08-01T15:20:35.315Z,2.13
2022-08-01T15:23:02.002Z,1.90
2022-08-01T15:25:41.626Z,1.80
2022-08-01T15:28:10.781Z,2.25
2022-08-01T15:33:04.349Z,1.95
2022-08-01T15:35:30.988Z,2.00
2022-08-01T15:37:57.689Z,1.73
2022-08-01T15:40:24.904Z,3.22
2022-08-01T15:42:53.173Z,2.22
2022-08-01T15:45:45.999Z,1.38
2022-08-01T15:48:08.642Z,1.70
2022-08-01T15:50:35.510Z,1.73
2022-08-01T15:53:02.265Z,1.40
2022-08-01T15:55:28.895Z,1.50
2022-08-01T15:57:56.018Z,1.70
2022-08-01T16:00:22.891Z,1.40
2022-08-01T16:02:49.517Z,1.75
2022-08-01T16:05:20.192Z,1.52
2022-08-01T16:07:58.089Z,1.48
2022-08-01T16:10:28.828Z,1.80
2022-08-01T16:12:55.526Z,1.90
2022-08-01T16:15:22.632Z,1.70
2022-08-01T16:18:04.468Z,2.05
2022-08-01T16:20:31.143Z,1.37
2022-08-01T16:22:58.121Z,1.40
2022-08-01T16:25:24.855Z,1.58
2022-08-01T16:27:51.950Z,1.40
2022-08-01T16:30:18.601Z,1.40
2022-08-01T16:32:47.146Z,1.50
2022-08-01T16:35:14.810Z,1.50
2022-08-01T16:37:41.446Z,1.40
2022-08-01T16:40:08.374Z,1.42
2022-08-01T16:42:35.025Z,1.25
2022-08-01T16:45:08.601Z,1.58
2022-08-01T16:47:35.444Z,1.65
2022-08-01T16:50:02.113Z,1.77
2022-08-01T16:52:28.976Z,1.60
2022-08-01T16:54:58.021Z,1.23
2022-08-01T16:57:24.643Z,1.65
2022-08-01T16:59:51.262Z,1.40
2022-08-01T17:02:17.957Z,1.48
2022-08-01T17:04:44.587Z,1.42
2022-08-01T17:07:11.491Z,1.70
2022-08-01T17:09:42.959Z,1.65
2022-08-01T17:12:10.703Z,1.52
2022-08-01T17:14:39.932Z,1.35
2022-08-01T17:17:07.346Z,1.58
2022-08-01T17:19:34.424Z,1.70
2022-08-01T17:22:01.433Z,1.73
2022-08-01T17:24:28.217Z,1.48
2022-08-01T17:26:54.846Z,1.90
2022-08-01T17:29:21.598Z,1.70
2022-08-01T17:31:48.820Z,1.80
2022-08-01T17:34:15.642Z,1.52
2022-08-01T17:36:42.524Z,1.40
2022-08-01T17:39:09.949Z,1.75
2022-08-01T17:41:36.682Z,1.40
2022-08-01T17:44:03.389Z,1.30
2022-08-01T17:46:30.509Z,1.70
2022-08-01T17:48:57.700Z,1.30
2022-08-01T17:51:24.402Z,1.67
2022-08-01T17:53:57.046Z,1.70
2022-08-01T17:56:25.462Z,1.52
2022-08-01T17:58:52.519Z,1.93
2022-08-01T18:01:20.306Z,1.70
2022-08-01T18:03:47.686Z,1.70
2022-08-01T18:06:17.536Z,1.30
2022-08-01T18:08:48.002Z,1.60
2022-08-01T18:11:16.674Z,1.35
2022-08-01T18:13:43.751Z,1.50
2022-08-01T18:16:12.953Z,1.55
2022-08-01T18:18:41.365Z,1.48
2022-08-01T18:21:08.273Z,1.75
2022-08-01T18:23:35.284Z,1.50
2022-08-01T18:26:02.833Z,1.98
2022-08-01T18:28:35.172Z,1.60
2022-08-01T18:31:03.546Z,1.70
2022-08-01T18:33:30.233Z,1.50
2022-08-01T18:36:03.783Z,1.95
2022-08-01T18:38:32.940Z,1.70
2022-08-01T18:41:01.180Z,1.65
2022-08-01T18:43:28.292Z,1.90
2022-08-01T18:45:57.366Z,1.40
2022-08-01T18:48:24.371Z,1.73
2022-08-01T18:50:51.533Z,1.60
2022-08-01T18:53:18.871Z,1.58
2022-08-01T18:55:45.654Z,2.03
2022-08-01T18:58:12.314Z,1.45
2022-08-01T19:00:40.073Z,1.20
2022-08-01T19:03:07.898Z,1.70
2022-08-01T19:05:35.915Z,1.65
2022-08-01T19:08:04.911Z,1.58
2022-08-01T19:10:35.988Z,1.85
2022-08-01T19:15:29.714Z,1.85
2022-08-01T19:17:56.362Z,1.58
2022-08-01T19:20:23.274Z,1.60
2022-08-01T19:22:49.898Z,1.55
2022-08-01T19:25:16.781Z,1.58
2022-08-01T19:27:49.364Z,1.55
2022-08-01T19:30:17.445Z,1.60
2022-08-01T19:32:45.345Z,1.65
2022-08-01T19:35:14.024Z,1.65
2022-08-01T19:37:45.762Z,1.85
2022-08-01T19:40:26.211Z,1.77
2022-08-01T19:42:55.086Z,1.38
2022-08-01T19:45:21.996Z,1.45
2022-08-01T19:47:51.827Z,1.60
2022-08-01T19:50:24.175Z,1.50
2022-08-01T19:52:52.229Z,1.30
2022-08-01T19:55:19.044Z,1.30
2022-08-01T19:57:59.317Z,1.33
2022-08-01T20:03:03.606Z,1.73
2022-08-01T20:05:30.487Z,1.60
2022-08-01T20:07:57.482Z,1.63
2022-08-01T20:10:24.125Z,1.55
2022-08-01T20:12:50.825Z,1.45
2022-08-01T20:15:17.477Z,1.50
2022-08-01T20:17:45.634Z,1.42
2022-08-01T20:20:12.335Z,1.77
2022-08-01T20:22:41.525Z,1.65
2022-08-01T20:25:09.363Z,1.80
2022-08-01T20:27:36.026Z,1.52
2022-08-01T20:30:02.981Z,1.77
2022-08-01T20:32:33.719Z,1.60
2022-08-01T20:35:01.317Z,1.52
2022-08-01T20:38:05.840Z,1.63
2022-08-01T20:40:15.867Z,1.60
2022-08-01T20:42:45.609Z,1.88
2022-08-01T20:45:18.032Z,1.90
2022-08-01T20:47:47.376Z,2.03
2022-08-01T20:50:53.747Z,2.05
2022-08-01T20:53:19.217Z,2.15
2022-08-01T20:55:50.365Z,1.80
2022-08-01T20:58:28.178Z,2.15
2022-08-01T21:00:57.194Z,1.88
2022-08-01T21:03:27.089Z,1.92
2022-08-01T21:06:02.226Z,2.17
2022-08-01T21:08:50.066Z,1.77
2022-08-01T21:11:21.153Z,1.75
2022-08-01T21:13:49.184Z,2.05
2022-08-01T21:16:22.505Z,2.08
2022-08-01T21:19:19.036Z,2.10
2022-08-01T21:21:50.647Z,1.70
2022-08-01T21:24:18.908Z,1.80
2022-08-01T21:26:46.278Z,2.28
2022-08-01T21:29:13.170Z,2.10
2022-08-01T21:31:41.449Z,2.78
2022-08-01T21:34:09.133Z,2.00
2022-08-01T21:36:36.255Z,2.22
2022-08-01T21:39:05.313Z,1.80
2022-08-01T21:42:05.168Z,1.88
2022-08-01T21:44:19.033Z,2.40
2022-08-01T21:46:47.210Z,2.58
2022-08-01T21:49:13.891Z,1.90
2022-08-01T21:51:51.932Z,2.22
2022-08-01T21:54:41.677Z,2.22
2022-08-01T21:57:20.667Z,2.33
2022-08-01T21:59:54.103Z,2.72
2022-08-01T22:02:36.671Z,2.53
2022-08-01T22:05:06.302Z,2.63
2022-08-01T22:07:36.153Z,2.22
2022-08-01T22:10:05.767Z,2.83
2022-08-01T22:12:35.292Z,2.20
2022-08-01T22:15:06.623Z,2.53
2022-08-01T22:17:33.757Z,2.70
2022-08-01T22:20:00.943Z,2.42
2022-08-01T22:22:51.631Z,2.53
2022-08-01T22:25:16.882Z,2.33
2022-08-01T22:28:05.788Z,2.53
2022-08-01T22:30:31.298Z,2.60
2022-08-01T22:33:07.073Z,2.33
2022-08-01T22:35:43.319Z,2.53
2022-08-01T22:38:10.398Z,2.40
2022-08-01T22:40:40.457Z,2.45
2022-08-01T22:43:34.149Z,2.13
2022-08-01T22:46:22.582Z,2.40
2022-08-01T22:48:58.225Z,2.55
2022-08-01T22:51:51.271Z,2.55
2022-08-01T22:54:39.975Z,2.55
2022-08-01T22:57:28.037Z,2.60
2022-08-01T23:00:01.247Z,3.28
2022-08-01T23:02:31.860Z,2.63
2022-08-01T23:05:04.531Z,2.20
2022-08-01T23:07:38.686Z,2.75
2022-08-01T23:10:07.276Z,2.92
2022-08-01T23:15:01.251Z,2.42
2022-08-01T23:17:31.845Z,2.30
2022-08-01T23:20:00.980Z,2.40
2022-08-01T23:22:30.517Z,2.22
2022-08-01T23:25:04.364Z,2.70
2022-08-01T23:27:54.068Z,2.80
2022-08-01T23:30:30.186Z,2.20
2022-08-01T23:32:57.586Z,2.22
2022-08-01T23:35:25.020Z,2.40
2022-08-01T23:37:52.098Z,2.78
2022-08-01T23:40:19.368Z,2.50
2022-08-01T23:42:46.124Z,2.30
2022-08-01T23:45:12.817Z,2.80
2022-08-01T23:47:39.491Z,2.30
2022-08-01T23:50:07.803Z,2.53
2022-08-01T23:52:35.905Z,2.40
2022-08-01T23:55:15.709Z,2.47
2022-08-01T23:57:42.758Z,2.90
